Time;durP1;ratioP1;P1;durP2;ratioP2;P2;SDS_P1;SDS_P2;PMS_P1;PMS_P2;Temp;Humidity;BMP_temperature;BMP_pressure;BME280_temperature;BME280_humidity;BME280_pressure;Samples;Min_cycle;Max_cycle;Signal;HPM_P1;HPM_P2
2022/01/28 00:00:33;;;;;;;18.65;8.98;;;;;;;3.03;100.00;100365.81;5073138;28;20068;-76
2022/01/28 00:03:06;;;;;;;20.95;10.13;;;;;;;3.03;100.00;100364.03;5072869;28;20501;-76
2022/01/28 00:05:36;;;;;;;22.30;10.32;;;;;;;3.07;100.00;100359.53;5072166;28;20109;-79
2022/01/28 00:08:07;;;;;;;22.63;10.73;;;;;;;3.08;100.00;100370.03;5072668;28;20576;-79
2022/01/28 00:10:39;;;;;;;17.40;7.78;;;;;;;3.12;100.00;100387.50;5072986;28;20052;-80
2022/01/28 00:13:17;;;;;;;21.42;10.95;;;;;;;3.09;100.00;100373.56;5072549;28;20048;-80
2022/01/28 00:19:04;;;;;;;23.67;12.63;;;;;;;3.14;100.00;100387.47;5029057;28;20063;-79
2022/01/28 00:38:30;;;;;;;24.75;13.30;;;;;;;3.16;100.00;100306.56;5072498;28;20049;-78
2022/01/28 00:40:59;;;;;;;;;;;;;;;3.08;100.00;100345.44;5072843;28;20041;-78
2022/01/28 00:43:27;;;;;;;23.33;11.48;;;;;;;2.98;100.00;100367.69;5072542;28;20370;-77
2022/01/28 00:45:56;;;;;;;20.63;11.65;;;;;;;3.04;100.00;100364.91;5072468;28;20048;-77
2022/01/28 00:48:24;;;;;;;23.77;12.10;;;;;;;3.16;100.00;100380.38;5072519;28;20470;-82
2022/01/28 00:50:52;;;;;;;25.17;12.93;;;;;;;3.22;100.00;100385.47;5072245;28;20098;-82
2022/01/28 00:53:20;;;;;;;22.98;11.90;;;;;;;3.20;100.00;100387.31;5072631;28;20052;-82
2022/01/28 00:55:49;;;;;;;25.00;13.07;;;;;;;3.27;100.00;100375.66;5075793;28;20044;-82
2022/01/28 00:58:19;;;;;;;23.77;12.15;;;;;;;3.33;100.00;100385.16;5075777;28;20036;-83
2022/01/28 01:00:48;;;;;;;27.40;13.20;;;;;;;3.31;100.00;100387.84;5076070;28;20495;-83
2022/01/28 01:03:17;;;;;;;27.63;13.38;;;;;;;3.32;100.00;100379.03;5075922;28;20099;-80
2022/01/28 01:05:46;;;;;;;23.23;11.45;;;;;;;3.35;100.00;100378.94;5076178;28;20074;-79
2022/01/28 01:08:14;;;;;;;21.13;11.00;;;;;;;3.41;100.00;100356.81;5075564;28;20497;-80
2022/01/28 01:10:43;;;;;;;23.40;12.25;;;;;;;3.42;100.00;100356.75;5075937;28;20036;-79
2022/01/28 01:13:12;;;;;;;19.13;10.40;;;;;;;3.45;100.00;100371.63;5075654;28;20123;-79
2022/01/28 01:15:46;;;;;;;25.38;13.10;;;;;;;3.43;100.00;100369.03;5075783;28;20055;-79
2022/01/28 01:18:23;;;;;;;21.75;12.05;;;;;;;3.51;100.00;100360.06;5075469;28;20047;-79
2022/01/28 01:21:01;;;;;;;22.20;11.07;;;;;;;3.57;100.00;100359.84;5076001;28;20044;-80
2022/01/28 01:23:32;;;;;;;21.17;10.50;;;;;;;3.60;100.00;100360.63;5076746;28;20071;-80
2022/01/28 01:26:06;;;;;;;19.23;9.32;;;;;;;3.62;100.00;100364.09;5075377;28;20049;-78
2022/01/28 01:28:38;;;;;;;19.98;10.32;;;;;;;3.60;100.00;100365.06;5075574;28;20044;-80
2022/01/28 01:31:11;;;;;;;22.65;11.30;;;;;;;3.59;100.00;100347.50;5075246;28;20049;-77
2022/01/28 01:33:44;;;;;;;;;;;;;;;3.55;100.00;100357.25;5076203;28;20061;-78
2022/01/28 01:36:12;;;;;;;19.48;10.23;;;;;;;3.54;100.00;100359.94;5075021;28;20023;-78
2022/01/28 01:38:41;;;;;;;21.20;10.75;;;;;;;3.60;100.00;100351.88;5075294;28;20453;-77
2022/01/28 01:41:14;;;;;;;19.92;11.35;;;;;;;3.64;100.00;100356.13;5074945;28;20071;-77
2022/01/28 01:43:54;;;;;;;21.92;11.60;;;;;;;3.61;100.00;100357.09;5075016;28;20037;-76
2022/01/28 01:46:37;;;;;;;18.85;10.32;;;;;;;3.60;100.00;100333.41;5074644;28;20076;-77
2022/01/28 01:52:05;;;;;;;20.45;11.35;;;;;;;3.67;100.00;100329.69;5074857;28;20047;-78
2022/01/28 01:54:37;;;;;;;19.00;10.32;;;;;;;3.62;100.00;100332.44;5075071;28;20081;-76
2022/01/28 01:57:07;;;;;;;17.67;8.82;;;;;;;3.70;100.00;100324.28;5074437;28;20048;-76
2022/01/28 01:59:36;;;;;;;15.93;7.50;;;;;;;3.74;100.00;100310.09;5075345;28;20052;-76
2022/01/28 02:02:07;;;;;;;16.98;8.40;;;;;;;3.74;100.00;100304.81;5074416;28;20045;-77
2022/01/28 02:04:36;;;;;;;16.55;8.27;;;;;;;3.85;100.00;100326.44;5074672;28;20067;-76
2022/01/28 02:07:05;;;;;;;16.58;8.43;;;;;;;3.83;100.00;100338.81;5074359;28;20056;-77
2022/01/28 02:09:34;;;;;;;17.25;9.07;;;;;;;3.86;100.00;100330.84;5074505;28;20124;-77
2022/01/28 02:12:03;;;;;;;17.90;9.02;;;;;;;3.91;100.00;100326.25;5074181;28;20048;-78
2022/01/28 02:14:31;;;;;;;17.75;8.18;;;;;;;3.86;100.00;100333.47;5074579;28;20124;-77
2022/01/28 02:17:02;;;;;;;18.08;8.98;;;;;;;3.79;100.00;100323.16;5074321;28;20040;-77
2022/01/28 02:19:31;;;;;;;19.08;9.27;;;;;;;3.81;100.00;100321.31;5074502;28;20044;-79
2022/01/28 02:22:01;;;;;;;14.70;7.43;;;;;;;3.86;100.00;100325.56;5074364;28;20068;-78
2022/01/28 02:24:35;;;;;;;16.00;8.90;;;;;;;3.85;100.00;100326.44;5074230;28;20513;-79
2022/01/28 02:27:04;;;;;;;17.45;9.25;;;;;;;3.82;100.00;100323.03;5073903;28;20052;-78
2022/01/28 02:29:35;;;;;;;18.50;8.65;;;;;;;3.82;100.00;100308.06;5073973;28;20052;-79
2022/01/28 02:32:06;;;;;;;17.77;9.40;;;;;;;3.79;100.00;100292.34;5074347;28;20045;-79
2022/01/28 02:34:36;;;;;;;17.02;9.05;;;;;;;3.79;100.00;100300.25;5072991;28;20045;-79
2022/01/28 02:37:06;;;;;;;19.73;9.60;;;;;;;3.74;100.00;100304.81;5073424;28;20068;-79
2022/01/28 02:39:35;;;;;;;16.92;9.38;;;;;;;3.73;100.00;100311.00;5073858;28;20045;-79
2022/01/28 02:42:13;;;;;;;14.80;8.02;;;;;;;3.90;100.00;100319.25;5073744;28;20075;-79
2022/01/28 02:44:47;;;;;;;16.63;9.00;;;;;;;3.89;100.00;100319.31;5074197;28;20048;-80
2022/01/28 02:47:18;;;;;;;15.63;8.68;;;;;;;3.94;100.00;100305.03;5073684;28;20037;-80
2022/01/28 02:49:46;;;;;;;14.63;7.57;;;;;;;3.94;100.00;100290.97;5073890;28;20044;-80
2022/01/28 02:52:24;;;;;;;13.52;7.00;;;;;;;3.95;100.00;100304.13;5073470;28;20131;-80
2022/01/28 02:54:53;;;;;;;12.02;6.15;;;;;;;3.93;100.00;100305.09;5073948;28;20036;-80
2022/01/28 02:57:25;;;;;;;10.55;5.95;;;;;;;4.07;100.00;100305.53;5073285;28;20055;-79
2022/01/28 02:59:54;;;;;;;11.50;5.70;;;;;;;4.09;100.00;100321.31;5073513;28;20040;-80
2022/01/28 03:02:23;;;;;;;8.35;3.70;;;;;;;4.15;100.00;100329.00;5073277;28;20052;-78
2022/01/28 03:05:19;;;;;;;9.82;5.50;;;;;;;4.19;100.00;100313.03;5073590;28;20427;-78
2022/01/28 03:07:49;;;;;;;8.23;4.80;;;;;;;4.30;100.00;100326.72;5073703;28;20040;-77
2022/01/28 03:10:31;;;;;;;6.53;3.17;;;;;;;4.34;100.00;100332.75;5072916;28;20059;-76
2022/01/28 03:13:13;;;;;;;8.18;4.47;;;;;;;4.34;100.00;100331.91;5073519;28;20090;-77
2022/01/28 03:15:45;;;;;;;7.95;4.72;;;;;;;4.36;100.00;100341.53;5072549;28;20087;-77
2022/01/28 03:18:17;;;;;;;6.38;3.63;;;;;;;4.43;100.00;100350.94;5073187;28;20423;-77
2022/01/28 03:20:58;;;;;;;7.00;3.78;;;;;;;4.45;100.00;100329.78;5073153;28;20040;-80
2022/01/28 03:23:35;;;;;;;6.90;2.72;;;;;;;4.46;100.00;100331.53;5072887;28;20045;-80
2022/01/28 03:26:04;;;;;;;7.40;3.92;;;;;;;4.48;100.00;100325.25;5073436;28;20051;-77
2022/01/28 03:28:32;;;;;;;4.88;2.97;;;;;;;4.50;100.00;100333.13;5073189;28;20048;-80
2022/01/28 03:31:00;;;;;;;6.95;4.03;;;;;;;4.47;100.00;100334.09;5072944;28;20123;-79
2022/01/28 03:33:29;;;;;;;7.20;4.20;;;;;;;4.47;100.00;100315.63;5072650;28;20048;-79
2022/01/28 03:36:01;;;;;;;6.63;3.63;;;;;;;4.53;100.00;100333.88;5072825;28;20078;-79
2022/01/28 03:38:31;;;;;;;4.57;2.38;;;;;;;4.59;100.00;100322.25;5072983;28;20072;-79
2022/01/28 03:40:59;;;;;;;5.50;2.60;;;;;;;4.62;100.00;100316.84;5073193;28;20473;-79
2022/01/28 03:43:28;;;;;;;5.03;3.20;;;;;;;4.63;100.00;100333.56;5072828;28;20073;-79
2022/01/28 03:45:56;;;;;;;4.95;2.92;;;;;;;4.66;100.00;100328.19;5072934;28;20044;-77
2022/01/28 03:48:25;;;;;;;4.28;2.35;;;;;;;4.68;100.00;100324.56;5072847;28;20036;-77
2022/01/28 03:50:53;;;;;;;5.20;3.28;;;;;;;4.70;100.00;100341.22;5073198;28;20500;-78
2022/01/28 03:53:21;;;;;;;3.22;1.92;;;;;;;4.77;100.00;100326.91;5072718;28;20048;-82
2022/01/28 03:55:52;;;;;;;4.82;2.58;;;;;;;4.73;100.00;100334.97;5072142;28;20137;-83
2022/01/28 03:58:21;;;;;;;6.20;2.88;;;;;;;4.74;100.00;100342.00;5072417;28;20052;-83
2022/01/28 04:00:51;;;;;;;6.22;3.10;;;;;;;4.74;100.00;100356.06;5072619;28;20045;-80
2022/01/28 04:03:39;;;;;;;5.22;3.03;;;;;;;4.79;100.00;100351.47;5072822;28;20094;-78
2022/01/28 04:11:55;;;;;;;6.35;3.42;;;;;;;4.82;100.00;100355.78;5072736;28;20047;-79
2022/01/28 04:14:37;;;;;;;4.40;2.22;;;;;;;4.87;100.00;100332.72;5072635;28;20045;-79
2022/01/28 04:17:22;;;;;;;4.22;2.45;;;;;;;4.83;100.00;100352.25;5072815;28;20370;-80
2022/01/28 04:19:51;;;;;;;8.13;3.35;;;;;;;4.71;100.00;100363.22;5072911;28;20032;-77
2022/01/28 04:22:21;;;;;;;5.72;3.20;;;;;;;4.72;100.00;100351.75;5072521;28;20044;-78
2022/01/28 04:24:49;;;;;;;6.30;3.83;;;;;;;4.68;100.00;100361.56;5072704;28;20041;-76
2022/01/28 04:27:19;;;;;;;5.80;3.33;;;;;;;4.59;100.00;100354.81;5074051;28;20067;-76
2022/01/28 04:29:48;;;;;;;5.93;3.33;;;;;;;4.50;100.00;100359.53;5076233;28;20044;-76
2022/01/28 04:32:18;;;;;;;6.70;3.13;;;;;;;4.40;100.00;100353.69;5075836;28;20049;-76
2022/01/28 04:34:47;;;;;;;5.90;3.28;;;;;;;4.32;100.00;100346.03;5075398;28;20080;-76
2022/01/28 04:37:25;;;;;;;6.03;3.53;;;;;;;4.34;100.00;100348.63;5076209;28;20448;-76
2022/01/28 04:39:58;;;;;;;5.60;3.40;;;;;;;4.30;100.00;100379.56;5076501;28;20044;-76
2022/01/28 04:42:43;;;;;;;6.80;3.42;;;;;;;4.33;100.00;100357.44;5076181;28;20044;-76
2022/01/28 04:45:18;;;;;;;5.68;2.83;;;;;;;4.27;100.00;100349.75;5076397;28;20441;-76
2022/01/28 04:47:58;;;;;;;6.45;3.63;;;;;;;4.19;100.00;100370.25;5076141;28;20040;-76
2022/01/28 04:50:35;;;;;;;6.03;3.70;;;;;;;4.16;100.00;100365.09;5075960;28;20456;-75
2022/01/28 04:53:19;;;;;;;6.68;3.53;;;;;;;4.13;100.00;100370.44;5075981;28;20478;-76
2022/01/28 04:56:07;;;;;;;6.40;3.20;;;;;;;4.10;100.00;100381.09;5075968;28;20043;-76
2022/01/28 04:58:49;;;;;;;5.57;3.58;;;;;;;4.14;100.00;100403.84;5075452;28;20042;-78
2022/01/28 05:04:16;;;;;;;6.03;3.20;;;;;;;4.05;100.00;100419.97;5068741;28;20113;-79
2022/01/28 05:07:22;;;;;;;6.45;3.40;;;;;;;4.00;100.00;100417.47;5075680;28;20375;-78
2022/01/28 05:13:17;;;;;;;8.05;3.10;;;;;;;3.91;100.00;100420.41;5033609;28;20045;-79
2022/01/28 05:24:40;;;;;;;6.90;3.85;;;;;;;3.77;100.00;100441.06;5075576;28;20119;-79
2022/01/28 05:27:11;;;;;;;5.88;3.17;;;;;;;3.78;100.00;100448.94;5075276;28;20497;-78
2022/01/28 05:29:39;;;;;;;5.22;3.25;;;;;;;3.86;100.00;100446.94;5074934;28;20071;-77
2022/01/28 05:32:10;;;;;;;5.47;3.10;;;;;;;3.81;100.00;100443.56;5075288;28;20040;-78
2022/01/28 05:34:39;;;;;;;6.55;3.10;;;;;;;3.72;100.00;100446.47;5075494;28;20052;-78
2022/01/28 05:37:08;;;;;;;5.80;3.13;;;;;;;3.67;100.00;100446.59;5074173;28;20477;-78
2022/01/28 05:39:37;;;;;;;6.00;3.22;;;;;;;3.70;100.00;100456.19;5074304;28;20937;-78
2022/01/28 05:42:07;;;;;;;7.53;3.10;;;;;;;3.87;100.00;100467.13;5075417;28;20040;-78
2022/01/28 05:44:37;;;;;;;2.40;1.70;;;;;;;4.00;100.00;100460.56;5074979;28;20090;-78
2022/01/28 05:47:06;;;;;;;5.22;2.40;;;;;;;4.00;100.00;100465.84;5073850;28;20045;-78
2022/01/28 05:49:36;;;;;;;4.65;2.78;;;;;;;3.85;100.00;100466.28;5074769;28;20430;-78
2022/01/28 05:52:04;;;;;;;6.18;2.88;;;;;;;3.93;100.00;100476.63;5075349;28;20363;-77
2022/01/28 05:54:33;;;;;;;5.35;2.80;;;;;;;4.11;100.00;100475.22;5074742;28;20540;-77
2022/01/28 05:57:01;;;;;;;5.15;2.85;;;;;;;3.98;100.00;100478.25;5074901;28;20432;-78
2022/01/28 05:59:30;;;;;;;5.20;3.00;;;;;;;3.96;100.00;100482.69;5074556;28;20137;-77
2022/01/28 06:01:59;;;;;;;5.03;2.78;;;;;;;4.01;100.00;100483.41;5074693;28;20055;-76
2022/01/28 06:04:37;;;;;;;3.92;2.17;;;;;;;4.07;100.00;100489.44;5074429;28;20102;-76
2022/01/28 06:07:05;;;;;;;5.10;2.70;;;;;;;4.20;100.00;100489.00;5074743;28;20075;-76
2022/01/28 06:09:33;;;;;;;5.10;3.05;;;;;;;4.17;100.00;100489.13;5073921;28;20048;-76
2022/01/28 06:12:02;;;;;;;5.22;2.80;;;;;;;4.18;100.00;100488.19;5073474;28;20102;-80
2022/01/28 06:14:30;;;;;;;5.22;3.20;;;;;;;4.08;100.00;100483.25;5074989;28;20051;-76
2022/01/28 06:16:58;;;;;;;5.15;2.55;;;;;;;4.23;100.00;100494.19;5074869;28;20079;-75
2022/01/28 06:19:28;;;;;;;5.72;2.42;;;;;;;4.34;100.00;100490.34;5074105;28;20493;-75
2022/01/28 06:21:58;;;;;;;5.18;3.38;;;;;;;4.20;100.00;100482.88;5074329;28;20123;-74
2022/01/28 06:24:26;;;;;;;7.72;2.72;;;;;;;4.34;100.00;100495.63;5073711;28;20566;-78
2022/01/28 06:26:55;;;;;;;4.20;2.53;;;;;;;4.46;100.00;100509.34;5072854;28;20049;-77
2022/01/28 06:29:23;;;;;;;4.90;2.78;;;;;;;4.44;100.00;100499.72;5073600;28;20042;-77
2022/01/28 06:31:51;;;;;;;3.90;2.33;;;;;;;4.52;100.00;100505.63;5073912;28;20382;-75
2022/01/28 06:34:20;;;;;;;5.32;2.60;;;;;;;4.48;100.00;100512.81;5074133;28;20401;-74
2022/01/28 06:36:49;;;;;;;6.72;2.60;;;;;;;4.67;100.00;100509.59;5074095;28;20045;-73
2022/01/28 06:39:19;;;;;;;4.40;2.45;;;;;;;4.64;100.00;100493.84;5073926;28;20560;-72
2022/01/28 06:41:47;;;;;;;5.68;2.42;;;;;;;4.66;100.00;100492.00;5073731;28;20037;-72
2022/01/28 06:44:16;;;;;;;2.92;1.90;;;;;;;4.68;100.00;100492.81;5069319;28;20471;-76
2022/01/28 06:46:44;;;;;;;2.80;1.60;;;;;;;4.67;100.00;100489.31;5052622;28;20045;-77
2022/01/28 06:49:12;;;;;;;3.05;1.63;;;;;;;4.71;100.00;100476.84;5053002;28;20060;-75
2022/01/28 06:51:41;;;;;;;2.95;1.90;;;;;;;4.70;100.00;100485.69;5051946;28;20063;-73
2022/01/28 06:54:09;;;;;;;3.72;2.00;;;;;;;4.68;100.00;100469.03;5053416;28;20041;-73
2022/01/28 06:56:38;;;;;;;3.67;1.38;;;;;;;4.63;100.00;100473.59;5052864;28;20076;-73
2022/01/28 06:59:07;;;;;;;3.60;1.73;;;;;;;4.58;100.00;100450.84;5051893;28;20084;-72
2022/01/28 07:01:36;;;;;;;3.83;1.20;;;;;;;4.54;100.00;100454.50;5051197;28;20049;-74
2022/01/28 07:04:04;;;;;;;2.97;1.55;;;;;;;4.55;100.00;100474.72;5053206;28;20045;-74
2022/01/28 07:06:33;;;;;;;3.42;1.80;;;;;;;4.51;100.00;100462.50;5052517;28;20045;-75
2022/01/28 07:09:01;;;;;;;3.13;1.20;;;;;;;4.51;100.00;100467.78;5052878;28;20049;-74
2022/01/28 07:11:29;;;;;;;4.28;1.80;;;;;;;4.51;100.00;100473.06;5052688;28;20052;-75
2022/01/28 07:13:59;;;;;;;4.15;1.48;;;;;;;4.54;100.00;100465.06;5058913;28;20056;-75
2022/01/28 07:16:29;;;;;;;3.33;1.58;;;;;;;4.47;100.00;100445.03;5072500;28;20055;-75
2022/01/28 07:18:58;;;;;;;3.35;1.20;;;;;;;4.51;100.00;100467.78;5071519;28;20040;-72
2022/01/28 07:21:26;;;;;;;2.50;1.42;;;;;;;4.55;100.00;100492.34;5074808;28;20055;-77
2022/01/28 07:23:55;;;;;;;3.25;1.80;;;;;;;4.53;100.00;100481.81;5076154;28;20465;-74
2022/01/28 07:26:23;;;;;;;2.05;1.08;;;;;;;4.54;100.00;100467.72;5072730;28;20040;-72
2022/01/28 07:28:52;;;;;;;2.15;1.10;;;;;;;4.56;100.00;100468.53;5072164;28;20102;-72
2022/01/28 07:31:22;;;;;;;6.70;2.03;;;;;;;4.55;100.00;100476.50;5074423;28;20044;-71
2022/01/28 07:33:51;;;;;;;2.58;1.38;;;;;;;4.66;100.00;100470.88;5073419;28;20071;-73
2022/01/28 07:36:19;;;;;;;3.78;1.40;;;;;;;4.65;100.00;100477.06;5072853;28;20424;-75
2022/01/28 07:38:47;;;;;;;2.80;1.50;;;;;;;4.65;100.00;100480.56;5071856;28;20048;-72
2022/01/28 07:41:16;;;;;;;3.85;1.70;;;;;;;4.66;100.00;100462.94;5072637;28;20120;-78
2022/01/28 07:43:48;;;;;;;2.75;1.30;;;;;;;4.70;100.00;100446.06;5072027;28;20032;-78
2022/01/28 07:46:16;;;;;;;2.72;1.23;;;;;;;4.70;100.00;100446.06;5072457;28;20044;-73
2022/01/28 07:48:46;;;;;;;1.92;1.00;;;;;;;4.74;100.00;100453.00;5071742;28;20036;-72
2022/01/28 07:51:14;;;;;;;2.42;1.23;;;;;;;4.79;100.00;100445.75;5072546;28;20075;-80
2022/01/28 07:53:43;;;;;;;5.43;1.38;;;;;;;4.87;100.00;100460.44;5072048;28;20044;-76
2022/01/28 07:56:12;;;;;;;2.97;1.40;;;;;;;4.90;100.00;100464.75;5072275;28;20090;-76
2022/01/28 07:58:42;;;;;;;2.20;1.20;;;;;;;4.92;100.00;100470.84;5071913;28;20462;-74
2022/01/28 08:01:11;;;;;;;2.67;0.90;;;;;;;4.98;100.00;100472.44;5072388;28;20482;-79
2022/01/28 08:03:42;;;;;;;3.40;1.30;;;;;;;5.01;100.00;100464.41;5076374;28;20044;-75
2022/01/28 08:06:12;;;;;;;4.90;1.27;;;;;;;5.03;100.00;100463.44;5076564;28;20484;-78
2022/01/28 08:08:40;;;;;;;2.38;1.13;;;;;;;5.05;100.00;100456.31;5075612;28;20513;-76
2022/01/28 08:11:10;;;;;;;2.58;1.27;;;;;;;5.13;100.00;100459.56;5076483;28;20064;-79
2022/01/28 08:13:39;;;;;;;5.35;1.25;;;;;;;5.15;100.00;100449.81;5075432;28;20036;-78
2022/01/28 08:16:07;;;;;;;2.72;1.00;;;;;;;5.18;100.00;100433.81;5063206;28;20040;-77
2022/01/28 08:18:35;;;;;;;2.03;1.02;;;;;;;5.12;100.00;100412.91;5055722;28;20065;-80
2022/01/28 08:21:04;;;;;;;2.08;0.90;;;;;;;5.11;100.00;100392.63;5056052;28;20045;-79
2022/01/28 08:23:35;;;;;;;5.80;1.52;;;;;;;5.12;100.00;100427.91;5056190;28;20055;-75
2022/01/28 08:26:04;;;;;;;1.45;1.05;;;;;;;5.13;100.00;100419.91;5056171;28;20051;-73
2022/01/28 08:28:33;;;;;;;2.97;0.98;;;;;;;5.13;100.00;100419.91;5054577;28;20067;-73
2022/01/28 08:31:02;;;;;;;1.55;0.95;;;;;;;5.14;100.00;100450.72;5056121;28;20072;-73
2022/01/28 08:33:30;;;;;;;2.17;0.65;;;;;;;5.15;100.00;100407.50;5055648;28;20053;-73
2022/01/28 08:36:02;;;;;;;3.40;1.20;;;;;;;5.22;100.00;100442.53;5055740;28;20482;-73
2022/01/28 08:38:36;;;;;;;2.83;0.95;;;;;;;5.27;100.00;100439.69;5055463;28;20048;-76
2022/01/28 08:41:06;;;;;;;4.13;1.27;;;;;;;5.33;100.00;100450.06;5055918;28;20037;-76
2022/01/28 08:43:34;;;;;;;3.60;1.10;;;;;;;5.32;100.00;100441.28;5057324;28;20115;-74
2022/01/28 08:46:04;;;;;;;2.30;1.20;;;;;;;5.38;100.00;100451.63;5075764;28;20045;-75
2022/01/28 08:48:32;;;;;;;1.52;0.90;;;;;;;5.38;99.58;100450.75;5075237;28;20053;-73
2022/01/28 08:51:04;;;;;;;5.35;1.17;;;;;;;5.46;98.78;100472.53;5075144;28;20055;-75
2022/01/28 08:53:33;;;;;;;7.38;1.45;;;;;;;5.50;99.02;100487.38;5075474;28;20037;-78
2022/01/28 08:56:01;;;;;;;2.72;0.95;;;;;;;5.58;98.12;100490.59;5075007;28;20063;-79
2022/01/28 08:58:31;;;;;;;7.22;1.30;;;;;;;5.57;97.91;100480.94;5075016;28;20117;-74
2022/01/28 09:01:00;;;;;;;2.03;0.60;;;;;;;5.54;97.33;100496.94;5075203;28;20040;-76
2022/01/28 09:03:32;;;;;;;1.65;0.70;;;;;;;5.63;96.97;100480.72;5075567;28;20082;-77
2022/01/28 09:06:03;;;;;;;10.40;0.85;;;;;;;5.56;97.23;100481.84;5075200;28;20075;-71
2022/01/28 09:08:32;;;;;;;1.15;0.43;;;;;;;5.53;96.80;100460.81;5075146;28;20063;-76
2022/01/28 09:11:29;;;;;;;4.55;1.10;;;;;;;5.62;96.76;100484.28;5073644;28;20520;-72
2022/01/28 09:13:52;;;;;;;2.30;0.55;;;;;;;5.58;95.74;100465.91;5073406;28;20123;-74
2022/01/28 09:16:21;;;;;;;6.85;1.33;;;;;;;5.69;95.36;100471.69;5074923;28;20098;-73
2022/01/28 09:18:51;;;;;;;4.63;1.40;;;;;;;5.72;95.60;100461.00;5074309;28;20123;-72
2022/01/28 09:21:20;;;;;;;2.00;0.52;;;;;;;5.66;94.68;100485.03;5074746;28;20045;-75
2022/01/28 09:23:48;;;;;;;6.07;0.93;;;;;;;5.71;94.69;100488.41;5074768;28;20539;-74
2022/01/28 09:26:17;;;;;;;4.25;1.00;;;;;;;5.67;94.49;100490.25;5075235;28;20098;-72
2022/01/28 09:28:50;;;;;;;2.05;0.70;;;;;;;5.73;94.88;100500.63;5074501;28;20048;-73
2022/01/28 09:31:19;;;;;;;16.95;1.98;;;;;;;5.83;94.42;100502.94;5074818;28;20040;-73
2022/01/28 09:33:47;;;;;;;2.60;0.55;;;;;;;5.79;94.68;100485.44;5074627;28;20048;-74
2022/01/28 09:36:19;;;;;;;3.47;0.90;;;;;;;5.77;95.08;100498.72;5074999;28;20470;-75
2022/01/28 09:38:47;;;;;;;3.00;1.23;;;;;;;5.78;95.25;100479.28;5073980;28;20044;-73
2022/01/28 09:41:16;;;;;;;5.15;1.00;;;;;;;5.85;95.01;100461.41;5074769;28;20051;-71
2022/01/28 09:44:09;;;;;;;3.40;0.63;;;;;;;5.86;95.17;100471.94;5073614;28;20040;-71
2022/01/28 09:46:38;;;;;;;4.13;1.30;;;;;;;5.85;95.49;100506.41;5074178;28;20051;-71
2022/01/28 09:49:06;;;;;;;6.07;1.23;;;;;;;5.98;95.59;100513.00;5073934;28;20044;-70
2022/01/28 09:51:35;;;;;;;2.35;0.65;;;;;;;5.98;94.77;100532.44;5074389;28;20055;-72
2022/01/28 09:54:04;;;;;;;9.07;1.10;;;;;;;6.00;93.23;100504.09;5074198;28;20066;-72
2022/01/28 09:56:32;;;;;;;1.85;0.57;;;;;;;6.01;92.78;100504.97;5074455;28;20131;-71
2022/01/28 09:59:01;;;;;;;6.00;0.80;;;;;;;5.97;92.80;100511.28;5074193;28;20572;-71
2022/01/28 10:01:31;;;;;;;14.88;6.05;;;;;;;6.06;92.62;100518.00;5074423;28;20064;-71
2022/01/28 10:04:02;;;;;;;7.35;0.95;;;;;;;6.25;92.24;100498.72;5074099;28;20531;-71
2022/01/28 10:06:31;;;;;;;2.00;0.40;;;;;;;6.25;89.94;100519.91;5074538;28;20052;-72
2022/01/28 10:09:03;;;;;;;4.65;1.40;;;;;;;6.34;85.67;100549.63;5073911;28;20057;-71
2022/01/28 10:11:31;;;;;;;4.85;1.08;;;;;;;6.32;84.38;100569.09;5074248;28;20048;-71
2022/01/28 10:14:08;;;;;;;2.28;0.70;;;;;;;6.31;80.76;100532.06;5073641;28;20068;-71
2022/01/28 10:16:37;;;;;;;3.95;1.05;;;;;;;6.39;76.63;100548.53;5073933;28;20044;-71
2022/01/28 10:19:07;;;;;;;2.00;0.95;;;;;;;6.55;76.43;100499.31;5074141;28;20041;-70
2022/01/28 10:21:37;;;;;;;5.88;1.05;;;;;;;6.49;73.46;100498.69;5062987;28;20441;-70
2022/01/28 10:24:15;;;;;;;5.28;1.20;;;;;;;6.48;73.05;100531.44;5053739;28;20452;-70
2022/01/28 10:26:46;;;;;;;6.18;1.13;;;;;;;6.58;72.39;100519.53;5054277;28;20049;-71
2022/01/28 10:29:17;;;;;;;2.67;1.05;;;;;;;6.67;71.45;100527.13;5052382;28;20053;-70
2022/01/28 10:31:53;;;;;;;6.10;0.93;;;;;;;6.57;71.41;100496.63;5053484;28;20033;-74
2022/01/28 10:34:24;;;;;;;4.00;1.00;;;;;;;6.57;70.60;100523.13;5053367;28;20468;-68
2022/01/28 10:37:14;;;;;;;3.92;1.00;;;;;;;6.48;70.76;100523.47;5053490;28;20041;-71
2022/01/28 10:39:48;;;;;;;2.95;1.15;;;;;;;6.66;68.94;100524.50;5053811;28;20037;-69
2022/01/28 10:42:35;;;;;;;15.82;2.03;;;;;;;6.41;69.31;100484.88;5054012;28;20061;-70
2022/01/28 10:45:10;;;;;;;4.43;0.80;;;;;;;6.50;68.46;100497.78;5068363;28;20052;-70
2022/01/28 10:47:42;;;;;;;7.35;1.17;;;;;;;6.54;66.90;100584.19;5073566;28;20125;-70
2022/01/28 10:50:19;;;;;;;2.70;0.82;;;;;;;6.50;65.83;100511.88;5073199;28;20044;-69
2022/01/28 10:52:57;;;;;;;7.35;1.40;;;;;;;6.60;65.67;100489.41;5073441;28;20399;-68
2022/01/28 10:55:25;;;;;;;2.28;0.93;;;;;;;6.62;65.25;100512.31;5073495;28;20064;-68
2022/01/28 10:57:59;;;;;;;6.47;1.13;;;;;;;6.69;63.92;100512.03;5072792;28;20041;-73
2022/01/28 11:00:29;;;;;;;9.82;2.83;;;;;;;6.70;62.73;100545.56;5072804;28;20074;-71
2022/01/28 11:03:01;;;;;;;2.15;0.90;;;;;;;6.79;62.05;100529.28;5072692;28;20086;-73
2022/01/28 11:05:32;;;;;;;5.25;1.17;;;;;;;6.75;61.50;100525.00;5072816;28;20048;-72
2022/01/28 11:08:02;;;;;;;1.75;0.60;;;;;;;6.82;61.97;100536.25;5072288;28;20499;-72
2022/01/28 11:10:31;;;;;;;4.85;1.02;;;;;;;6.77;61.72;100539.09;5071678;28;20047;-71
2022/01/28 11:13:01;;;;;;;3.60;0.82;;;;;;;6.72;61.60;100534.88;5072549;28;20607;-68
2022/01/28 11:15:31;;;;;;;4.65;1.15;;;;;;;6.93;61.39;100523.41;5072801;28;20090;-68
2022/01/28 11:18:03;;;;;;;4.00;0.85;;;;;;;6.86;61.43;100509.56;5073087;28;20496;-72
2022/01/28 11:20:36;;;;;;;3.88;0.90;;;;;;;6.89;62.05;100543.91;5072953;28;20052;-72
2022/01/28 11:23:12;;;;;;;;;;;;;;;6.92;62.01;100537.59;5073174;28;20040;-69
2022/01/28 11:26:01;;;;;;;4.05;0.70;;;;;;;6.84;62.24;100535.25;5072697;28;19920;-72
2022/01/28 11:28:42;;;;;;;2.75;1.00;;;;;;;6.93;62.53;100533.16;5071555;28;20143;-69
2022/01/28 11:31:10;;;;;;;1.40;0.70;;;;;;;6.74;63.64;100535.69;5072317;28;20048;-72
2022/01/28 11:33:48;;;;;;;1.30;0.80;;;;;;;6.80;63.51;100525.69;5072641;28;20063;-70
2022/01/28 11:36:32;;;;;;;2.15;0.93;;;;;;;6.60;64.38;100549.50;5072094;28;20045;-72
2022/01/28 11:39:08;;;;;;;5.65;0.88;;;;;;;6.56;64.75;100547.88;5075027;28;20158;-72
2022/01/28 11:41:37;;;;;;;1.48;0.73;;;;;;;6.54;65.56;100541.78;5075884;28;20040;-71
2022/01/28 11:44:05;;;;;;;3.15;0.98;;;;;;;6.63;65.67;100545.84;5072122;28;20049;-72
2022/01/28 11:46:38;;;;;;;4.03;1.40;;;;;;;6.56;66.11;100537.25;5072511;28;20123;-70
2022/01/28 11:49:24;;;;;;;2.42;0.73;;;;;;;6.52;66.84;100525.06;5072168;28;20404;-71
2022/01/28 11:51:53;;;;;;;3.30;1.00;;;;;;;6.55;65.60;100531.09;5072160;28;20151;-71
2022/01/28 11:54:33;;;;;;;1.92;0.80;;;;;;;6.55;65.25;100554.09;5072566;28;20064;-71
2022/01/28 11:57:16;;;;;;;4.35;1.23;;;;;;;6.46;65.96;100528.81;5072051;28;20036;-70
2022/01/28 11:59:48;;;;;;;2.63;0.80;;;;;;;6.43;66.19;100549.28;5072132;28;20493;-71
2022/01/28 12:02:20;;;;;;;6.85;1.00;;;;;;;6.37;66.85;100547.75;5072231;28;20044;-70
2022/01/28 12:04:51;;;;;;;2.93;0.97;;;;;;;6.36;66.84;100558.38;5072488;28;20041;-74
2022/01/28 12:07:24;;;;;;;9.98;1.50;;;;;;;6.33;67.15;100548.75;5072249;28;20037;-71
2022/01/28 12:09:55;;;;;;;7.45;1.40;;;;;;;6.42;67.11;100574.91;5072342;28;20044;-77
2022/01/28 12:12:56;;;;;;;2.88;1.17;;;;;;;6.35;67.14;100572.53;5072631;28;20075;-73
2022/01/28 12:15:26;;;;;;;2.47;1.05;;;;;;;6.35;67.93;100564.59;5072151;28;20048;-73
2022/01/28 12:18:07;;;;;;;5.22;1.48;;;;;;;6.50;68.21;100566.69;5071477;28;20119;-73
2022/01/28 12:20:48;;;;;;;6.18;1.17;;;;;;;6.38;68.19;100556.56;5072265;28;20040;-73
2022/01/28 12:23:38;;;;;;;2.10;0.70;;;;;;;6.25;68.85;100567.59;5071722;28;20048;-73
2022/01/28 12:26:07;;;;;;;2.35;1.05;;;;;;;6.23;69.06;100566.78;5071713;28;20505;-73
2022/01/28 12:28:51;;;;;;;3.40;1.23;;;;;;;6.25;68.98;100570.25;5071928;28;20127;-73
2022/01/28 12:31:21;;;;;;;;;;;;;;;6.21;69.48;100571.28;5071812;28;20072;-72